Time;durP1;ratioP1;P1;durP2;ratioP2;P2;SDS_P1;SDS_P2;PMS_P1;PMS_P2;Temp;Humidity;BMP_temperature;BMP_pressure;BME280_temperature;BME280_humidity;BME280_pressure;Samples;Min_cycle;Max_cycle;Signal;HPM_P1;HPM_P2
2022/03/21 00:00:27;;;;;;;35.88;26.60;;;;;;;9.34;100.00;100578.22;4990775;28;20240;-75
2022/03/21 00:02:55;;;;;;;31.73;25.75;;;;;;;9.64;100.00;100582.50;4989638;28;20284;-75
2022/03/21 00:05:21;;;;;;;32.58;25.33;;;;;;;9.65;100.00;100578.88;4989811;28;20557;-75
2022/03/21 00:07:49;;;;;;;39.88;26.60;;;;;;;9.50;100.00;100591.09;4986335;28;20188;-75
2022/03/21 00:10:16;;;;;;;37.67;27.02;;;;;;;9.37;100.00;100588.00;4986323;28;20548;-74
2022/03/21 00:12:43;;;;;;;31.30;26.15;;;;;;;9.40;100.00;100590.53;4983126;28;20316;-75
2022/03/21 00:15:10;;;;;;;34.00;25.55;;;;;;;9.42;100.00;100593.19;4983050;28;20192;-76
2022/03/21 00:17:40;;;;;;;33.33;25.90;;;;;;;9.46;100.00;100586.78;4992138;28;20222;-77
2022/03/21 00:20:09;;;;;;;32.83;25.77;;;;;;;9.29;100.00;100593.63;4987162;28;20630;-76
2022/03/21 00:22:36;;;;;;;40.50;26.67;;;;;;;9.20;100.00;100591.28;4978377;28;20565;-74
2022/03/21 00:25:05;;;;;;;35.97;26.20;;;;;;;9.18;100.00;100593.19;4979684;28;20641;-75
2022/03/21 00:27:32;;;;;;;33.97;25.63;;;;;;;9.17;100.00;100599.47;4982801;28;20189;-74
2022/03/21 00:29:59;;;;;;;38.22;26.63;;;;;;;9.19;100.00;100592.22;4988690;28;20190;-76
2022/03/21 00:32:25;;;;;;;38.97;27.02;;;;;;;9.16;100.00;100603.09;4978046;28;20282;-74
2022/03/21 00:34:52;;;;;;;32.75;26.90;;;;;;;9.13;100.00;100606.75;4988090;28;20613;-75
2022/03/21 00:37:19;;;;;;;35.53;28.23;;;;;;;9.26;100.00;100598.25;4983200;28;20226;-76
2022/03/21 00:39:45;;;;;;;42.38;28.02;;;;;;;9.21;100.00;100598.44;4986432;28;20194;-76
2022/03/21 00:42:13;;;;;;;37.92;27.95;;;;;;;9.20;100.00;100596.66;4985187;28;20198;-74
2022/03/21 00:44:40;;;;;;;34.53;26.85;;;;;;;9.21;100.00;100595.75;4985857;28;20191;-75
2022/03/21 00:47:07;;;;;;;34.33;25.75;;;;;;;9.30;100.00;100592.72;4978360;28;20202;-76
2022/03/21 00:49:33;;;;;;;36.00;27.20;;;;;;;9.26;100.00;100587.50;4978607;28;20190;-76
2022/03/21 00:52:00;;;;;;;39.70;27.42;;;;;;;9.13;100.00;100587.06;4986045;28;20196;-76
2022/03/21 00:54:27;;;;;;;34.75;27.52;;;;;;;9.08;100.00;100587.25;4984497;28;20205;-76
2022/03/21 00:56:53;;;;;;;35.45;26.55;;;;;;;9.04;100.00;100590.09;4986846;28;20194;-76
2022/03/21 00:59:21;;;;;;;35.60;26.10;;;;;;;9.03;100.00;100591.03;4983696;28;20639;-76
2022/03/21 01:01:48;;;;;;;34.67;25.65;;;;;;;9.08;100.00;100592.63;4982177;28;20229;-76
2022/03/21 01:04:14;;;;;;;35.78;25.58;;;;;;;9.03;100.00;100593.72;4989820;28;20675;-76
2022/03/21 01:06:41;;;;;;;34.22;25.50;;;;;;;8.96;100.00;100595.75;4981583;28;20543;-76
2022/03/21 01:09:09;;;;;;;34.38;25.90;;;;;;;9.02;100.00;100595.50;4982758;28;20185;-76
2022/03/21 01:11:36;;;;;;;35.95;27.20;;;;;;;9.22;100.00;100597.47;4988180;28;20695;-76
2022/03/21 01:14:02;;;;;;;33.97;26.90;;;;;;;9.24;100.00;100606.38;4982770;28;20647;-76
2022/03/21 01:16:30;;;;;;;33.50;26.17;;;;;;;9.19;100.00;100608.34;4982587;28;20280;-75
2022/03/21 01:18:57;;;;;;;36.33;28.30;;;;;;;9.18;100.00;100614.69;4980730;28;20231;-75
2022/03/21 01:21:24;;;;;;;36.53;26.27;;;;;;;9.30;100.00;100610.66;4993717;28;20208;-76
2022/03/21 01:23:50;;;;;;;33.85;25.45;;;;;;;9.29;100.00;100615.13;4993332;28;20188;-76
2022/03/21 01:26:17;;;;;;;34.72;26.23;;;;;;;9.43;100.00;100611.97;4992976;28;20190;-75
2022/03/21 01:28:44;;;;;;;34.10;24.25;;;;;;;9.57;100.00;100608.75;4986460;28;20198;-75
2022/03/21 01:31:10;;;;;;;37.45;26.52;;;;;;;9.37;100.00;100612.19;4984414;28;20201;-76
2022/03/21 01:33:40;;;;;;;34.00;24.98;;;;;;;9.30;100.00;100610.66;4993286;28;20213;-75
2022/03/21 01:36:08;;;;;;;32.17;24.50;;;;;;;9.27;100.00;100608.97;4992977;28;20221;-75
2022/03/21 01:38:34;;;;;;;32.40;23.50;;;;;;;9.14;100.00;100615.72;4992723;28;20208;-77
2022/03/21 01:41:01;;;;;;;37.60;25.90;;;;;;;9.23;100.00;100610.00;4992995;28;20202;-76
2022/03/21 01:43:28;;;;;;;33.85;25.55;;;;;;;9.10;100.00;100606.00;4993818;28;20196;-75
2022/03/21 01:45:54;;;;;;;33.97;25.80;;;;;;;9.05;100.00;100600.78;4992699;28;20189;-75
2022/03/21 01:48:21;;;;;;;32.00;24.65;;;;;;;9.02;100.00;100605.38;4992675;28;20201;-74
2022/03/21 01:50:49;;;;;;;40.20;24.90;;;;;;;9.12;100.00;100604.13;4993095;28;20642;-76
2022/03/21 01:56:01;;;;;;;34.30;24.65;;;;;;;9.21;100.00;100601.13;4992985;28;20217;-76
2022/03/21 01:58:30;;;;;;;30.30;24.48;;;;;;;8.96;100.00;100599.31;4992797;28;20561;-76
2022/03/21 02:00:56;;;;;;;33.55;24.98;;;;;;;9.07;100.00;100598.94;4992521;28;20245;-76
2022/03/21 02:03:24;;;;;;;32.17;24.88;;;;;;;9.24;100.00;100603.69;4992847;28;20228;-76
2022/03/21 02:05:52;;;;;;;34.88;24.80;;;;;;;9.21;100.00;100609.19;4992965;28;20602;-76
2022/03/21 02:08:18;;;;;;;31.90;24.25;;;;;;;9.16;100.00;100606.66;4992641;28;20206;-76
2022/03/21 02:10:46;;;;;;;31.13;23.27;;;;;;;9.14;100.00;100611.22;4992639;28;20696;-76
2022/03/21 02:13:14;;;;;;;39.42;25.30;;;;;;;9.25;100.00;100613.50;4992626;28;20191;-76
2022/03/21 02:15:42;;;;;;;33.80;25.30;;;;;;;9.46;100.00;100605.59;4985688;28;20195;-76
2022/03/21 02:18:12;;;;;;;36.85;24.48;;;;;;;9.44;100.00;100612.81;4986516;28;20225;-76
2022/03/21 02:20:41;;;;;;;33.10;23.33;;;;;;;9.56;100.00;100612.34;4985244;28;20539;-76
2022/03/21 02:23:17;;;;;;;33.05;22.45;;;;;;;9.77;100.00;100616.06;4992131;28;20246;-76
2022/03/21 02:25:46;;;;;;;27.52;19.88;;;;;;;9.93;100.00;100609.13;4985527;28;20192;-76
2022/03/21 02:28:15;;;;;;;28.23;20.67;;;;;;;10.01;99.89;100615.06;4988044;28;20198;-76
2022/03/21 02:30:43;;;;;;;24.88;18.75;;;;;;;9.81;100.00;100609.59;4982259;28;20195;-76
2022/03/21 02:33:10;;;;;;;33.47;21.05;;;;;;;9.56;100.00;100612.34;4980459;28;20195;-76
2022/03/21 02:35:39;;;;;;;31.10;23.52;;;;;;;9.06;100.00;100604.34;4984919;28;20191;-77
2022/03/21 02:38:07;;;;;;;25.25;21.15;;;;;;;8.90;100.00;100604.00;4984688;28;20226;-76
2022/03/21 02:40:34;;;;;;;30.38;23.88;;;;;;;8.76;100.00;100605.38;4984396;28;20190;-76
2022/03/21 02:43:02;;;;;;;34.67;23.83;;;;;;;8.70;100.00;100610.06;4987801;28;20182;-76
2022/03/21 02:45:28;;;;;;;29.27;23.77;;;;;;;8.80;100.00;100605.28;4995390;28;20236;-76
2022/03/21 02:47:55;;;;;;;29.33;23.25;;;;;;;8.75;100.00;100603.63;4979699;28;20569;-76
2022/03/21 02:50:39;;;;;;;28.05;21.98;;;;;;;8.89;100.00;100608.53;4989396;28;20201;-76
2022/03/21 02:53:08;;;;;;;30.25;23.80;;;;;;;8.95;100.00;100605.63;4981647;28;20522;-76
2022/03/21 02:55:35;;;;;;;36.35;24.15;;;;;;;8.76;100.00;100604.50;4994857;28;20644;-75
2022/03/21 02:58:03;;;;;;;31.95;24.70;;;;;;;8.71;100.00;100609.16;4983601;28;20205;-76
2022/03/21 03:00:30;;;;;;;28.23;21.88;;;;;;;8.74;100.00;100607.22;4987499;28;20280;-76
2022/03/21 03:02:57;;;;;;;31.33;22.85;;;;;;;8.69;100.00;100605.66;4990984;28;20196;-76
2022/03/21 03:05:23;;;;;;;29.48;22.48;;;;;;;8.77;100.00;100609.84;4980618;28;20296;-76
2022/03/21 03:07:50;;;;;;;31.80;22.08;;;;;;;8.92;100.00;100611.09;4991743;28;20200;-76
2022/03/21 03:10:17;;;;;;;33.40;23.58;;;;;;;9.00;100.00;100607.25;4984204;28;20198;-75
2022/03/21 03:12:43;;;;;;;26.27;19.90;;;;;;;8.89;100.00;100611.19;4984210;28;20644;-75
2022/03/21 03:15:11;;;;;;;28.48;20.95;;;;;;;8.65;100.00;100617.41;4990014;28;20194;-76
2022/03/21 03:17:38;;;;;;;36.75;21.73;;;;;;;8.44;100.00;100616.34;4985626;28;20188;-76
2022/03/21 03:20:06;;;;;;;23.52;20.50;;;;;;;8.31;100.00;100622.06;4985652;28;20679;-76
2022/03/21 03:22:32;;;;;;;28.70;21.65;;;;;;;8.35;100.00;100625.53;4987624;28;20192;-76
2022/03/21 03:25:02;;;;;;;27.73;20.88;;;;;;;8.52;100.00;100623.22;4987510;28;20279;-76
2022/03/21 03:27:30;;;;;;;24.75;19.45;;;;;;;8.56;100.00;100622.16;4986009;28;20251;-76
2022/03/21 03:29:57;;;;;;;31.20;22.65;;;;;;;8.48;100.00;100626.91;4988040;28;20280;-76
2022/03/21 03:32:25;;;;;;;25.45;20.77;;;;;;;8.58;100.00;100621.25;4983276;28;20199;-77
2022/03/21 03:34:52;;;;;;;28.10;20.30;;;;;;;8.65;100.00;100618.28;4987267;28;20203;-77
2022/03/21 03:37:19;;;;;;;29.90;20.50;;;;;;;8.60;100.00;100614.03;4986399;28;20195;-76
2022/03/21 03:39:46;;;;;;;25.30;20.70;;;;;;;8.28;100.00;100618.63;4988283;28;20567;-75
2022/03/21 03:42:12;;;;;;;25.95;20.80;;;;;;;8.12;100.00;100626.28;4988005;28;20192;-75
2022/03/21 03:44:39;;;;;;;32.53;22.77;;;;;;;8.04;100.00;100625.63;4984262;28;20185;-75
2022/03/21 03:47:06;;;;;;;30.25;22.98;;;;;;;7.86;100.00;100629.75;4977187;28;20663;-75
2022/03/21 03:49:34;;;;;;;28.35;21.92;;;;;;;7.87;100.00;100623.50;4985338;28;20612;-75
2022/03/21 03:52:01;;;;;;;32.40;23.30;;;;;;;7.85;100.00;100636.94;4986928;28;20286;-76
2022/03/21 03:54:27;;;;;;;31.25;22.40;;;;;;;7.94;100.00;100635.78;4986198;28;20199;-75
2022/03/21 03:56:54;;;;;;;29.73;21.88;;;;;;;8.13;100.00;100646.81;4981462;28;20195;-76
2022/03/21 03:59:21;;;;;;;29.80;22.30;;;;;;;8.21;100.00;100651.91;4982961;28;20224;-75
2022/03/21 04:01:47;;;;;;;30.17;20.83;;;;;;;8.15;100.00;100650.31;4983101;28;20260;-74
2022/03/21 04:04:14;;;;;;;26.05;19.23;;;;;;;8.05;100.00;100649.75;4981935;28;20274;-75
2022/03/21 04:06:42;;;;;;;28.80;21.58;;;;;;;7.97;100.00;100653.56;4982570;28;20207;-75
2022/03/21 04:09:08;;;;;;;30.55;20.83;;;;;;;7.98;100.00;100649.94;4983292;28;20625;-76
2022/03/21 04:11:35;;;;;;;25.90;19.77;;;;;;;7.80;100.00;100646.94;4986162;28;20286;-76
2022/03/21 04:14:02;;;;;;;23.92;18.75;;;;;;;7.69;100.00;100651.72;4987726;28;20546;-76
2022/03/21 04:16:29;;;;;;;31.58;18.42;;;;;;;7.61;100.00;100646.56;4990866;28;20195;-76
2022/03/21 04:18:55;;;;;;;26.65;19.02;;;;;;;7.51;100.00;100654.00;4982127;28;20226;-74
2022/03/21 04:21:22;;;;;;;32.10;19.90;;;;;;;7.46;100.00;100652.38;4991381;28;20203;-75
2022/03/21 04:23:50;;;;;;;32.05;20.25;;;;;;;7.61;100.00;100651.94;4988912;28;20283;-74
2022/03/21 04:26:16;;;;;;;26.05;19.48;;;;;;;7.69;100.00;100657.97;4993324;28;20660;-74
2022/03/21 04:28:43;;;;;;;25.67;18.90;;;;;;;7.66;100.00;100659.84;4981329;28;20195;-74
2022/03/21 04:31:10;;;;;;;25.38;18.80;;;;;;;7.43;100.00;100660.50;4983462;28;20554;-75
2022/03/21 04:33:36;;;;;;;26.95;18.80;;;;;;;7.41;100.00;100654.31;4986093;28;20211;-76
2022/03/21 04:36:03;;;;;;;25.27;18.67;;;;;;;7.35;100.00;100670.53;4975206;28;20655;-76
2022/03/21 04:38:30;;;;;;;27.13;18.88;;;;;;;7.27;100.00;100670.78;4985098;28;20214;-74
2022/03/21 04:40:58;;;;;;;25.60;19.40;;;;;;;7.25;100.00;100672.59;4986739;28;20276;-75
2022/03/21 04:43:24;;;;;;;26.90;20.65;;;;;;;7.29;100.00;100674.28;4992087;28;20198;-76
2022/03/21 04:45:51;;;;;;;27.73;19.75;;;;;;;7.38;100.00;100675.84;4986684;28;20599;-75
2022/03/21 04:48:18;;;;;;;28.38;18.98;;;;;;;7.28;100.00;100680.56;4990098;28;20286;-76
2022/03/21 04:50:44;;;;;;;32.67;19.98;;;;;;;7.31;100.00;100689.41;4988194;28;20196;-75
2022/03/21 04:53:11;;;;;;;26.00;19.25;;;;;;;7.22;100.00;100692.34;4983975;28;20184;-75
2022/03/21 04:55:40;;;;;;;30.00;20.15;;;;;;;7.24;100.00;100682.47;4980101;28;20204;-75
2022/03/21 04:58:08;;;;;;;24.85;19.10;;;;;;;7.15;100.00;100689.88;4987726;28;20246;-75
2022/03/21 05:00:36;;;;;;;31.67;21.40;;;;;;;6.82;100.00;100696.03;4990748;28;20311;-75
2022/03/21 05:03:07;;;;;;;27.95;20.08;;;;;;;6.82;100.00;100693.34;4991562;28;20235;-76
2022/03/21 05:05:34;;;;;;;26.52;18.80;;;;;;;6.81;100.00;100696.97;4988179;28;20184;-76
2022/03/21 05:08:01;;;;;;;32.17;19.48;;;;;;;6.71;100.00;100692.75;4985299;28;20608;-76
2022/03/21 05:10:28;;;;;;;29.77;20.30;;;;;;;6.62;100.00;100692.97;4985152;28;20351;-76
2022/03/21 05:12:57;;;;;;;27.73;20.55;;;;;;;6.58;100.00;100697.53;4984429;28;20195;-76
2022/03/21 05:15:25;;;;;;;32.35;19.98;;;;;;;6.70;100.00;100701.72;4985523;28;20203;-75
2022/03/21 05:17:52;;;;;;;29.58;19.90;;;;;;;6.85;100.00;100698.66;4977331;28;20210;-76
2022/03/21 05:20:19;;;;;;;27.67;19.35;;;;;;;7.07;100.00;100711.47;4981004;28;20605;-75
2022/03/21 05:30:57;;;;;;;25.80;19.38;;;;;;;7.20;100.00;100712.03;4981867;28;20630;-76
2022/03/21 05:31:02;;;;;;;25.75;17.70;;;;;;;7.03;100.00;100713.38;4968472;28;20202;-75
2022/03/21 05:36:13;;;;;;;27.33;18.75;;;;;;;7.00;100.00;100720.59;4981928;28;20199;-77
2022/03/21 05:38:39;;;;;;;27.90;18.17;;;;;;;7.08;100.00;100719.47;4981364;28;20194;-75
2022/03/21 05:41:06;;;;;;;26.60;18.85;;;;;;;7.19;100.00;100723.66;4978830;28;20279;-76
2022/03/21 05:43:35;;;;;;;28.15;20.05;;;;;;;7.14;100.00;100710.41;4984428;28;20286;-76
2022/03/21 05:46:04;;;;;;;27.30;18.98;;;;;;;7.20;100.00;100720.09;4976692;28;20202;-76
2022/03/21 05:51:27;;;;;;;26.75;18.98;;;;;;;6.95;100.00;100727.88;4960453;28;20188;-74
2022/03/21 05:53:54;;;;;;;29.02;20.15;;;;;;;6.86;100.00;100731.66;4979822;28;20619;-76
2022/03/21 05:56:22;;;;;;;29.73;19.73;;;;;;;6.92;100.00;100734.19;4986936;28;20642;-75
2022/03/21 05:58:48;;;;;;;30.08;18.90;;;;;;;6.99;100.00;100732.25;4981068;28;20211;-75
2022/03/21 06:01:22;;;;;;;29.75;19.33;;;;;;;7.00;100.00;100734.84;4983164;28;20238;-74
2022/03/21 06:03:49;;;;;;;25.60;19.52;;;;;;;7.14;100.00;100731.81;4984294;28;20206;-76
2022/03/21 06:06:17;;;;;;;30.50;19.88;;;;;;;7.06;100.00;100740.06;4996171;28;20200;-76
2022/03/21 06:08:44;;;;;;;31.77;19.67;;;;;;;6.87;100.00;100742.34;4979752;28;20221;-78
2022/03/21 06:11:12;;;;;;;33.72;20.65;;;;;;;6.83;100.00;100743.31;4980864;28;20275;-76
2022/03/21 06:13:42;;;;;;;26.23;19.02;;;;;;;6.91;100.00;100751.16;4989042;28;20203;-88
2022/03/21 06:16:09;;;;;;;27.70;19.35;;;;;;;6.82;100.00;100743.34;4988108;28;20234;-86
2022/03/21 06:18:39;;;;;;;26.08;19.90;;;;;;;6.91;100.00;100750.28;4999581;28;20198;-86
2022/03/21 06:21:10;;;;;;;29.40;20.67;;;;;;;6.84;100.00;100752.22;5010688;28;20290;-85
2022/03/21 06:23:37;;;;;;;29.40;21.90;;;;;;;7.01;100.00;100760.75;4982647;28;20188;-85
2022/03/21 06:26:04;;;;;;;31.77;20.42;;;;;;;7.17;100.00;100754.97;4985064;28;20196;-86
2022/03/21 06:28:32;;;;;;;28.77;17.98;;;;;;;7.19;100.00;100759.41;4988198;28;20199;-84
2022/03/21 06:30:59;;;;;;;33.85;23.25;;;;;;;7.48;100.00;100750.59;4991617;28;20283;-85
2022/03/21 06:33:28;;;;;;;32.17;22.58;;;;;;;7.49;100.00;100754.16;4989310;28;20220;-87
2022/03/21 06:35:57;;;;;;;38.00;23.02;;;;;;;7.43;100.00;100765.88;4991212;28;20195;-85
2022/03/21 06:38:24;;;;;;;35.17;25.13;;;;;;;7.62;100.00;100760.94;4992358;28;20280;-86
2022/03/21 06:40:51;;;;;;;34.75;22.48;;;;;;;7.59;100.00;100771.72;4985442;28;20230;-85
2022/03/21 06:43:20;;;;;;;35.00;24.58;;;;;;;7.68;100.00;100774.16;4991691;28;20692;-83
2022/03/21 06:45:47;;;;;;;31.60;22.05;;;;;;;7.59;100.00;100779.75;4984863;28;20568;-86
2022/03/21 06:48:14;;;;;;;31.23;20.98;;;;;;;7.67;100.00;100779.56;5001384;28;20215;-83
2022/03/21 06:50:40;;;;;;;32.55;21.42;;;;;;;7.52;100.00;100778.16;4979173;28;20194;-85
2022/03/21 06:53:08;;;;;;;27.65;19.73;;;;;;;7.60;100.00;100792.25;4987673;28;20193;-84
2022/03/21 06:55:35;;;;;;;31.17;21.20;;;;;;;7.80;100.00;100786.34;4983429;28;20200;-85
2022/03/21 06:58:03;;;;;;;32.75;22.20;;;;;;;8.19;100.00;100790.63;4994429;28;20185;-88
2022/03/21 07:00:30;;;;;;;29.60;21.83;;;;;;;8.45;100.00;100795.22;4990489;28;21046;-86
2022/03/21 07:02:56;;;;;;;32.15;21.85;;;;;;;8.46;100.00;100792.53;4979357;28;20392;-86
2022/03/21 07:05:25;;;;;;;32.17;21.35;;;;;;;8.71;98.08;100798.00;4985803;28;20204;-86
2022/03/21 07:07:52;;;;;;;33.45;21.70;;;;;;;8.61;97.50;100803.69;4979651;28;20205;-86
2022/03/21 07:10:20;;;;;;;32.08;21.33;;;;;;;8.40;97.96;100806.13;4991966;28;20204;-86
2022/03/21 07:12:47;;;;;;;26.63;19.95;;;;;;;8.25;99.13;100801.16;4977377;28;20190;-86
2022/03/21 07:15:15;;;;;;;30.08;21.23;;;;;;;8.21;100.00;100804.84;4987811;28;20192;-84
2022/03/21 07:17:42;;;;;;;30.52;21.42;;;;;;;8.54;98.59;100808.38;4995638;28;20270;-84
2022/03/21 07:20:11;;;;;;;30.15;21.10;;;;;;;8.76;97.11;100813.97;4998100;28;20287;-83
2022/03/21 07:22:37;;;;;;;32.30;21.63;;;;;;;9.10;95.60;100812.91;4986840;28;20661;-86
2022/03/21 07:25:06;;;;;;;29.83;21.60;;;;;;;9.09;95.50;100809.34;4994177;28;20222;-85
2022/03/21 07:27:34;;;;;;;27.85;20.83;;;;;;;8.98;94.62;100809.69;4996893;28;20189;-86
2022/03/21 07:30:00;;;;;;;26.67;19.00;;;;;;;8.84;96.07;100805.66;4993642;28;20208;-85
2022/03/21 07:32:27;;;;;;;25.90;18.42;;;;;;;8.87;95.30;100817.19;4996163;28;20535;-85
2022/03/21 07:34:53;;;;;;;28.27;19.17;;;;;;;9.20;93.07;100814.34;4981552;28;20557;-86
2022/03/21 07:37:20;;;;;;;31.60;20.95;;;;;;;9.26;92.79;100818.63;4976594;28;20217;-85
2022/03/21 07:39:47;;;;;;;25.98;18.27;;;;;;;9.59;90.16;100822.00;4990505;28;20211;-85
2022/03/21 07:42:16;;;;;;;25.15;19.98;;;;;;;9.63;88.79;100823.63;4986700;28;20193;-85
2022/03/21 07:47:29;;;;;;;24.23;19.25;;;;;;;9.52;88.62;100831.19;4978195;28;20207;-86
2022/03/21 07:49:56;;;;;;;24.40;18.45;;;;;;;9.78;87.77;100823.09;4981851;28;20185;-85
2022/03/21 07:52:23;;;;;;;27.48;19.92;;;;;;;9.96;86.17;100826.94;4984507;28;20214;-85
2022/03/21 07:54:54;;;;;;;26.83;20.38;;;;;;;10.09;86.39;100831.91;4976078;28;20199;-85
2022/03/21 07:57:21;;;;;;;24.60;20.00;;;;;;;10.25;85.72;100825.00;4985382;28;20202;-85
2022/03/21 07:59:50;;;;;;;29.75;21.00;;;;;;;10.30;84.55;100820.34;4995279;28;20695;-86
2022/03/21 08:02:19;;;;;;;28.60;20.23;;;;;;;10.43;83.75;100831.56;4984461;28;20220;-86
2022/03/21 08:04:46;;;;;;;28.20;22.55;;;;;;;10.62;81.80;100831.72;4978690;28;20199;-85
2022/03/21 08:07:13;;;;;;;31.80;21.33;;;;;;;10.59;81.07;100834.53;4987346;28;20207;-86
2022/03/21 08:09:40;;;;;;;31.48;18.70;;;;;;;10.73;78.87;100839.38;4983995;28;20184;-85
2022/03/21 08:12:07;;;;;;;27.58;20.77;;;;;;;10.99;76.64;100836.53;4975674;28;20225;-85
2022/03/21 08:14:34;;;;;;;26.25;18.10;;;;;;;10.96;74.19;100836.66;4975697;28;20218;-85
2022/03/21 08:17:02;;;;;;;25.30;18.67;;;;;;;11.13;74.51;100829.72;4975410;28;20256;-84
2022/03/21 08:19:29;;;;;;;35.55;23.98;;;;;;;11.19;73.04;100833.03;4975318;28;20188;-84
2022/03/21 08:21:56;;;;;;;24.50;16.95;;;;;;;11.50;71.00;100830.88;4976047;28;20214;-84
2022/03/21 08:24:23;;;;;;;27.30;18.27;;;;;;;11.72;68.92;100823.63;4978910;28;20195;-85
2022/03/21 08:26:50;;;;;;;26.98;17.23;;;;;;;12.01;67.00;100821.50;4995245;28;20214;-85
2022/03/21 08:29:17;;;;;;;26.00;16.75;;;;;;;12.17;64.40;100822.56;4995013;28;20632;-85
2022/03/21 08:31:44;;;;;;;26.85;16.23;;;;;;;12.16;64.23;100819.91;4994722;28;20203;-85
2022/03/21 08:34:12;;;;;;;29.02;18.40;;;;;;;12.25;63.70;100820.38;4994843;28;20188;-86
2022/03/21 08:36:38;;;;;;;22.88;16.17;;;;;;;12.29;62.76;100818.41;4982675;28;20560;-86
2022/03/21 08:39:05;;;;;;;22.98;16.80;;;;;;;12.50;62.71;100819.25;4992672;28;20194;-86
2022/03/21 08:41:31;;;;;;;25.30;17.85;;;;;;;12.77;60.75;100819.75;4994930;28;20223;-86
2022/03/21 08:43:58;;;;;;;23.67;17.40;;;;;;;12.56;60.87;100823.50;4995142;28;20187;-85
2022/03/21 08:46:26;;;;;;;20.45;15.32;;;;;;;12.72;60.38;100830.78;4994965;28;20205;-87
2022/03/21 08:51:38;;;;;;;22.00;14.05;;;;;;;12.89;58.09;100812.91;4984915;28;20573;-85
2022/03/21 08:54:05;;;;;;;21.65;13.20;;;;;;;13.13;56.76;100818.91;4994548;28;20652;-85
2022/03/21 08:56:32;;;;;;;18.15;12.40;;;;;;;13.30;55.71;100819.00;4994120;28;20195;-85
2022/03/21 08:58:58;;;;;;;17.95;12.25;;;;;;;13.49;54.20;100820.78;4994584;28;20300;-84
2022/03/21 09:01:25;;;;;;;15.73;13.15;;;;;;;13.70;53.40;100824.19;4993951;28;20709;-85
2022/03/21 09:03:52;;;;;;;18.65;12.30;;;;;;;13.72;52.39;100822.28;4994542;28;20191;-86
2022/03/21 09:06:20;;;;;;;16.75;12.05;;;;;;;14.09;50.42;100817.69;4993800;28;20208;-85
2022/03/21 09:08:48;;;;;;;13.88;10.38;;;;;;;14.12;49.61;100809.38;4994635;28;20196;-86
2022/03/21 09:11:17;;;;;;;17.13;10.93;;;;;;;14.29;49.63;100806.66;4994155;28;20192;-85
2022/03/21 09:13:44;;;;;;;15.35;11.73;;;;;;;14.56;49.14;100803.38;4994095;28;20212;-85
2022/03/21 09:16:10;;;;;;;14.15;10.68;;;;;;;14.40;49.25;100803.31;4994172;28;20570;-85
2022/03/21 09:18:37;;;;;;;13.90;10.35;;;;;;;14.56;49.12;100817.84;4992699;28;20484;-84
2022/03/21 09:21:04;;;;;;;18.55;10.70;;;;;;;14.63;48.73;100815.66;4993784;28;20228;-86
2022/03/21 09:23:30;;;;;;;13.50;10.00;;;;;;;14.51;47.95;100817.16;4986796;28;20193;-86
2022/03/21 09:26:00;;;;;;;15.20;10.90;;;;;;;14.51;48.22;100813.56;4974753;28;20531;-86
2022/03/21 09:28:27;;;;;;;13.93;10.00;;;;;;;14.79;47.82;100811.13;4977859;28;20301;-86
2022/03/21 09:30:53;;;;;;;12.90;10.18;;;;;;;14.96;47.16;100818.28;4978944;28;20217;-86
2022/03/21 09:33:20;;;;;;;14.82;11.02;;;;;;;15.04;47.15;100815.16;4975303;28;20563;-86
2022/03/21 09:35:47;;;;;;;13.20;10.00;;;;;;;15.15;47.18;100822.66;4974794;28;20195;-86
2022/03/21 09:38:14;;;;;;;13.85;11.10;;;;;;;15.37;46.06;100823.16;4974368;28;20203;-86
2022/03/21 09:40:42;;;;;;;11.52;10.18;;;;;;;15.41;46.03;100823.84;4974428;28;20235;-86
2022/03/21 09:43:11;;;;;;;13.70;10.85;;;;;;;15.32;46.25;100813.53;4974397;28;20204;-86
2022/03/21 09:45:38;;;;;;;12.75;11.35;;;;;;;15.49;46.15;100816.16;4974013;28;20206;-87
2022/03/21 09:48:12;;;;;;;23.55;14.45;;;;;;;15.72;44.55;100808.50;4974489;28;20187;-85
2022/03/21 09:50:42;;;;;;;14.50;8.50;;;;;;;15.37;44.24;100806.88;4977512;28;20234;-85
2022/03/21 09:53:10;;;;;;;9.98;8.73;;;;;;;15.66;43.46;100797.97;4975969;28;20196;-85
2022/03/21 09:55:37;;;;;;;10.38;7.97;;;;;;;15.98;42.33;100796.88;4974420;28;20524;-85
2022/03/21 09:58:04;;;;;;;10.30;8.23;;;;;;;15.68;42.70;100799.63;4992968;28;20201;-84
2022/03/21 10:00:32;;;;;;;10.85;8.10;;;;;;;15.79;42.53;100799.00;4990920;28;20235;-84
2022/03/21 10:02:59;;;;;;;9.00;7.93;;;;;;;15.88;42.20;100794.84;4992170;28;20187;-86
2022/03/21 10:05:37;;;;;;;9.10;7.50;;;;;;;16.05;41.69;100797.38;4984566;28;20192;-86
2022/03/21 10:08:21;;;;;;;9.15;7.60;;;;;;;15.79;41.70;100796.28;4988486;28;20278;-82
2022/03/21 10:10:56;;;;;;;12.75;8.07;;;;;;;15.77;42.39;100795.50;4986867;28;20186;-85
2022/03/21 10:13:24;;;;;;;15.93;9.50;;;;;;;16.13;41.94;100789.66;4980515;28;20507;-86
2022/03/21 10:16:10;;;;;;;9.05;7.53;;;;;;;16.10;41.21;100786.22;4973607;28;20210;-86
2022/03/21 10:18:37;;;;;;;11.13;8.27;;;;;;;16.17;40.91;100779.47;4985748;28;20656;-86
2022/03/21 10:21:11;;;;;;;12.43;8.25;;;;;;;16.37;40.46;100784.53;4993210;28;20237;-86
2022/03/21 10:23:38;;;;;;;14.75;9.05;;;;;;;16.35;40.79;100780.13;4991831;28;20198;-86
2022/03/21 10:26:23;;;;;;;10.05;7.90;;;;;;;16.41;39.72;100788.75;4992907;28;20191;-85
2022/03/21 10:28:52;;;;;;;9.20;7.78;;;;;;;16.54;39.60;100783.44;4993034;28;20632;-84
2022/03/21 10:31:34;;;;;;;12.68;8.55;;;;;;;16.65;39.10;100772.72;4995687;28;20186;-88
2022/03/21 10:34:01;;;;;;;10.80;8.90;;;;;;;17.00;38.92;100775.00;4998186;28;20641;-87
2022/03/21 10:36:27;;;;;;;10.77;7.78;;;;;;;17.02;38.79;100783.06;4994954;28;20203;-84
2022/03/21 10:39:07;;;;;;;7.40;6.60;;;;;;;16.34;39.55;100773.81;4995964;28;20255;-85
2022/03/21 10:41:36;;;;;;;8.65;6.40;;;;;;;16.35;39.01;100777.41;5002629;28;20285;-85
2022/03/21 10:44:03;;;;;;;13.00;8.10;;;;;;;16.61;38.27;100773.91;4987567;28;20652;-84
2022/03/21 10:46:31;;;;;;;9.60;7.43;;;;;;;16.76;38.29;100772.03;4992799;28;20195;-87
2022/03/21 10:49:02;;;;;;;8.48;6.72;;;;;;;16.52;38.56;100771.78;4981511;28;20215;-88
2022/03/21 10:51:46;;;;;;;9.02;7.60;;;;;;;16.53;38.20;100767.19;4984397;28;20202;-88
2022/03/21 10:54:36;;;;;;;12.45;7.40;;;;;;;16.78;38.34;100756.50;4980085;28;20184;-84
2022/03/21 10:57:03;;;;;;;8.60;7.20;;;;;;;16.99;37.48;100762.38;4992116;28;20192;-86
2022/03/21 10:59:29;;;;;;;7.95;7.07;;;;;;;16.99;37.20;100761.53;5004574;28;20282;-86
2022/03/21 11:02:12;;;;;;;9.00;7.85;;;;;;;17.01;38.04;100759.56;4989386;28;20238;-86
2022/03/21 11:04:42;;;;;;;8.45;7.43;;;;;;;16.97;38.50;100758.03;4990341;28;20194;-85
2022/03/21 11:07:11;;;;;;;9.52;7.72;;;;;;;17.18;38.40;100761.16;4997022;28;20331;-85
2022/03/21 11:09:39;;;;;;;11.40;8.38;;;;;;;17.29;38.25;100759.44;5001165;28;20192;-86
2022/03/21 11:12:07;;;;;;;11.05;7.75;;;;;;;17.45;38.02;100755.69;5008496;28;20183;-85
2022/03/21 11:14:36;;;;;;;9.60;7.82;;;;;;;17.20;38.15;100749.19;5006013;28;20202;-86
2022/03/21 11:17:04;;;;;;;9.32;7.72;;;;;;;17.16;37.90;100746.78;5007413;28;20183;-87
2022/03/21 11:19:32;;;;;;;8.70;7.80;;;;;;;17.28;37.15;100741.38;5004225;28;20222;-88
2022/03/21 11:21:59;;;;;;;9.20;7.43;;;;;;;17.09;36.90;100740.88;5007274;28;20551;-86
2022/03/21 11:24:26;;;;;;;7.60;6.80;;;;;;;17.28;36.43;100744.09;4998057;28;20196;-84
2022/03/21 11:27:00;;;;;;;11.82;7.30;;;;;;;17.17;36.82;100741.25;4993122;28;20271;-86
2022/03/21 11:29:39;;;;;;;8.07;6.53;;;;;;;17.20;36.49;100748.31;4990630;28;20260;-85
2022/03/21 11:32:25;;;;;;;10.27;6.53;;;;;;;17.06;36.92;100739.22;4990917;28;20211;-87
2022/03/21 11:35:01;;;;;;;10.88;7.20;;;;;;;16.80;37.59;100746.44;4992347;28;20200;-86